Springfield, MN (56087)

3:10 PM CDT on July 06, 2015 (GMT -0500)
Ryan Farms | | Change Station
CLOSE
Current Station
Personal Weather Station
Location: Springfield, MN
Elevation: 1076 ft
Nearby Weather Stations

Elev 1076 ft 44.27 °N, 95.08 °W | Updated 0 second ago

Overcast
Overcast
73.1 °F
Feels Like 75 °F
N
9.0
Wind Variable Wind from NNE
Gusts 11.0 mph

Today
High -- | Low -- °F
--% Chance of Precip.
Yesterday
High -- | Low -- °F
Precip. -- in
5:42 AM 9:06 PM
Waning Gibbous, 72% visible
Pressure 29.98 in
Visibility 1.8 miles
Clouds Mostly Cloudy 3100 ft
Overcast 3600 ft
Heat Index 75 °F
Dew Point 63 °F
Humidity 71%
Rainfall 1.44 in
Snow Depth Not available.
UV 3 out of 12
Pollen .60 out of 12
Air Quality Not available.
Flu Activity Not available.
SPECI KRWF 062007Z AUTO 36008KT 1 3/4SM HZ BKN031 OVC036 23/16 A2998 RMK AO2 T02280161

More Conditions Fewer Conditions

Pressure 29.98 in
Visibility 1.8 miles
Clouds Mostly Cloudy 3100 ft
Overcast 3600 ft
Heat Index 75 °F
Dew Point 63 °F
Humidity 71%
Rainfall 1.44 in
Snow Depth Not available.
UV 3 out of 12
Pollen .60 out of 12
Air Quality Not available.
Flu Activity Not available.
SPECI KRWF 062007Z AUTO 36008KT 1 3/4SM HZ BKN031 OVC036 23/16 A2998 RMK AO2 T02280161

More Conditions Fewer Conditions

10-Day Weather Forecast

×

Almanac

Astronomy

Jul. 06, 2015 Rise Set
Actual Time
Civil Twilight
Nautical Twilight
Astronomical Twilight
Moon
Length of Visible Light
Length of Day
Tomorrow will be .
, % of the Moon is Illuminated

Today's Extremes

State Highs State Lows

Community

WunderPhotos

Upload Photos

1,835,625 photos uploaded!

WunderBlogs® & News

Nearby

Air Quality

  Air Quality AQ Index Pollutant
Not available.

Snow Depth

Station Depth Elevation

Earthquake Activity

City Distance Mag. Time & Date
Minimum magnitude displayed is 2.5.

Coastal Water Temperatures

Place Temperature

Stations

Nearby Weather Stations

Station Location Temp. Windchill Dew Point Humidity Wind Precip. Elev Updated Type